Soldier, Kansas
Current Conditions -  °F | °C
As of 6:53 PM on Friday 24 Oct 2014 (Local Time) from KTOP Reporting Station
Clear Clear  
Wind Chill: 74°   Ceiling: Unl
Heat Index: 74°   Visibility: 10mi
Dew Point: 63°   Wind: 3mph
Humidity: 68%   Direction: 200°SSW
Pressure: 29.93"   Gusts: NA
Location:  39.54°N, 95.96°W
Report Text: KTOP 242353Z 20003KT 10SM CLR 23/17 A2993 RMK AO2 SLP130 T02330172 10267 20222 55004
Loading
Personal Weather Stations






























Interactive Weather Map
Tropical Storm Tracking
New forecast layout! Learn more

10-Day Weather Forecast

Advertisements
Track Severe Weather on mobile